sensor_id;sensor_type;location;lat;lon;timestamp;temperature;humidity
74081;SHT31;62438;52.228;6.864;2023-04-19T00:01:43;9.79;81.77
74081;SHT31;62438;52.228;6.864;2023-04-19T00:03:44;9.81;81.11
74081;SHT31;62438;52.228;6.864;2023-04-19T00:05:44;9.87;81.33
74081;SHT31;62438;52.228;6.864;2023-04-19T00:07:45;9.77;81.31
74081;SHT31;62438;52.228;6.864;2023-04-19T00:09:46;9.83;80.81
74081;SHT31;62438;52.228;6.864;2023-04-19T00:11:46;9.80;80.78
74081;SHT31;62438;52.228;6.864;2023-04-19T00:13:47;9.76;80.79
74081;SHT31;62438;52.228;6.864;2023-04-19T00:15:48;9.70;80.99
74081;SHT31;62438;52.228;6.864;2023-04-19T00:17:48;9.72;80.88
74081;SHT31;62438;52.228;6.864;2023-04-19T00:19:49;9.66;80.82
74081;SHT31;62438;52.228;6.864;2023-04-19T00:21:50;9.52;81.39
74081;SHT31;62438;52.228;6.864;2023-04-19T00:23:50;9.44;81.70
74081;SHT31;62438;52.228;6.864;2023-04-19T00:25:51;9.42;81.77
74081;SHT31;62438;52.228;6.864;2023-04-19T00:27:52;9.39;81.83
74081;SHT31;62438;52.228;6.864;2023-04-19T00:29:52;9.38;81.78
74081;SHT31;62438;52.228;6.864;2023-04-19T00:31:53;9.35;81.76
74081;SHT31;62438;52.228;6.864;2023-04-19T00:33:53;9.32;81.96
74081;SHT31;62438;52.228;6.864;2023-04-19T00:35:54;9.29;81.93
74081;SHT31;62438;52.228;6.864;2023-04-19T00:37:54;9.29;81.90
74081;SHT31;62438;52.228;6.864;2023-04-19T00:39:55;9.29;81.91
74081;SHT31;62438;52.228;6.864;2023-04-19T00:41:55;9.22;82.24
74081;SHT31;62438;52.228;6.864;2023-04-19T00:43:59;9.22;82.20
74081;SHT31;62438;52.228;6.864;2023-04-19T00:45:59;9.10;82.47
74081;SHT31;62438;52.228;6.864;2023-04-19T00:48:00;9.05;82.84
74081;SHT31;62438;52.228;6.864;2023-04-19T00:50:02;9.08;82.93
74081;SHT31;62438;52.228;6.864;2023-04-19T00:52:02;9.18;82.20
74081;SHT31;62438;52.228;6.864;2023-04-19T00:54:03;9.18;82.27
74081;SHT31;62438;52.228;6.864;2023-04-19T00:56:04;9.12;82.55
74081;SHT31;62438;52.228;6.864;2023-04-19T00:58:06;9.16;82.24
74081;SHT31;62438;52.228;6.864;2023-04-19T01:00:07;9.22;82.18
74081;SHT31;62438;52.228;6.864;2023-04-19T01:02:08;9.16;82.53
74081;SHT31;62438;52.228;6.864;2023-04-19T01:04:09;9.11;82.78
74081;SHT31;62438;52.228;6.864;2023-04-19T01:06:09;9.10;82.84
74081;SHT31;62438;52.228;6.864;2023-04-19T01:08:11;9.12;82.69
74081;SHT31;62438;52.228;6.864;2023-04-19T01:10:11;9.16;82.39
74081;SHT31;62438;52.228;6.864;2023-04-19T01:12:11;9.16;82.50
74081;SHT31;62438;52.228;6.864;2023-04-19T01:14:12;9.22;82.34
74081;SHT31;62438;52.228;6.864;2023-04-19T01:16:12;9.28;81.88
74081;SHT31;62438;52.228;6.864;2023-04-19T01:18:12;9.29;82.06
74081;SHT31;62438;52.228;6.864;2023-04-19T01:20:13;9.25;82.25
74081;SHT31;62438;52.228;6.864;2023-04-19T01:22:20;9.25;81.89
74081;SHT31;62438;52.228;6.864;2023-04-19T01:24:24;9.33;81.64
74081;SHT31;62438;52.228;6.864;2023-04-19T01:26:25;9.28;81.43
74081;SHT31;62438;52.228;6.864;2023-04-19T01:28:25;9.21;82.01
74081;SHT31;62438;52.228;6.864;2023-04-19T01:30:26;9.10;81.99
74081;SHT31;62438;52.228;6.864;2023-04-19T01:32:26;9.05;82.24
74081;SHT31;62438;52.228;6.864;2023-04-19T01:34:27;8.88;82.81
74081;SHT31;62438;52.228;6.864;2023-04-19T01:36:27;8.89;82.58
74081;SHT31;62438;52.228;6.864;2023-04-19T01:38:28;8.84;82.79
74081;SHT31;62438;52.228;6.864;2023-04-19T01:40:28;8.83;82.90
74081;SHT31;62438;52.228;6.864;2023-04-19T01:42:29;8.84;82.77
74081;SHT31;62438;52.228;6.864;2023-04-19T01:44:29;8.94;82.24
74081;SHT31;62438;52.228;6.864;2023-04-19T01:46:29;8.81;82.75
74081;SHT31;62438;52.228;6.864;2023-04-19T01:48:30;8.70;83.01
74081;SHT31;62438;52.228;6.864;2023-04-19T01:50:31;8.65;83.10
74081;SHT31;62438;52.228;6.864;2023-04-19T01:52:31;8.70;83.24
74081;SHT31;62438;52.228;6.864;2023-04-19T01:54:31;8.68;82.84
74081;SHT31;62438;52.228;6.864;2023-04-19T01:56:32;8.71;82.89
74081;SHT31;62438;52.228;6.864;2023-04-19T01:58:32;8.78;82.37
74081;SHT31;62438;52.228;6.864;2023-04-19T02:00:33;8.74;82.69
74081;SHT31;62438;52.228;6.864;2023-04-19T02:02:36;8.80;82.34
74081;SHT31;62438;52.228;6.864;2023-04-19T02:04:36;8.77;82.20
74081;SHT31;62438;52.228;6.864;2023-04-19T02:06:36;8.91;81.46
74081;SHT31;62438;52.228;6.864;2023-04-19T02:08:40;8.85;81.50
74081;SHT31;62438;52.228;6.864;2023-04-19T02:10:41;8.85;81.68
74081;SHT31;62438;52.228;6.864;2023-04-19T02:12:41;8.88;81.45
74081;SHT31;62438;52.228;6.864;2023-04-19T02:14:42;8.81;81.44
74081;SHT31;62438;52.228;6.864;2023-04-19T02:16:42;8.74;81.72
74081;SHT31;62438;52.228;6.864;2023-04-19T02:18:43;8.73;81.97
74081;SHT31;62438;52.228;6.864;2023-04-19T02:20:43;8.84;81.21
74081;SHT31;62438;52.228;6.864;2023-04-19T02:22:43;8.84;80.83
74081;SHT31;62438;52.228;6.864;2023-04-19T02:24:44;8.84;80.77
74081;SHT31;62438;52.228;6.864;2023-04-19T02:26:44;8.87;80.85
74081;SHT31;62438;52.228;6.864;2023-04-19T02:28:45;8.84;80.74
74081;SHT31;62438;52.228;6.864;2023-04-19T02:30:45;8.85;80.71
74081;SHT31;62438;52.228;6.864;2023-04-19T02:32:47;8.84;80.98
74081;SHT31;62438;52.228;6.864;2023-04-19T02:34:47;8.68;81.34
74081;SHT31;62438;52.228;6.864;2023-04-19T02:36:48;8.61;81.24
74081;SHT31;62438;52.228;6.864;2023-04-19T02:38:48;8.57;81.60
74081;SHT31;62438;52.228;6.864;2023-04-19T02:40:49;8.50;81.73
74081;SHT31;62438;52.228;6.864;2023-04-19T02:42:50;8.40;81.82
74081;SHT31;62438;52.228;6.864;2023-04-19T02:44:51;8.32;81.92
74081;SHT31;62438;52.228;6.864;2023-04-19T02:46:52;8.42;81.18
74081;SHT31;62438;52.228;6.864;2023-04-19T02:48:53;8.35;81.76
74081;SHT31;62438;52.228;6.864;2023-04-19T02:50:53;8.39;81.49
74081;SHT31;62438;52.228;6.864;2023-04-19T02:52:54;8.33;81.16
74081;SHT31;62438;52.228;6.864;2023-04-19T02:54:54;8.33;80.97
74081;SHT31;62438;52.228;6.864;2023-04-19T02:56:55;8.49;79.69
74081;SHT31;62438;52.228;6.864;2023-04-19T02:58:59;8.49;80.20
74081;SHT31;62438;52.228;6.864;2023-04-19T03:01:00;8.46;79.71
74081;SHT31;62438;52.228;6.864;2023-04-19T03:03:00;8.53;79.69
74081;SHT31;62438;52.228;6.864;2023-04-19T03:05:03;8.47;79.72
74081;SHT31;62438;52.228;6.864;2023-04-19T03:07:08;8.57;78.70
74081;SHT31;62438;52.228;6.864;2023-04-19T03:09:08;8.59;78.48
74081;SHT31;62438;52.228;6.864;2023-04-19T03:11:10;8.56;78.69
74081;SHT31;62438;52.228;6.864;2023-04-19T03:13:11;8.57;78.68
74081;SHT31;62438;52.228;6.864;2023-04-19T03:15:11;8.59;77.78
74081;SHT31;62438;52.228;6.864;2023-04-19T03:17:12;8.56;78.00
74081;SHT31;62438;52.228;6.864;2023-04-19T03:19:12;8.63;77.16
74081;SHT31;62438;52.228;6.864;2023-04-19T03:21:13;8.65;76.79
74081;SHT31;62438;52.228;6.864;2023-04-19T03:23:13;8.65;77.51
74081;SHT31;62438;52.228;6.864;2023-04-19T03:25:13;8.65;76.97
74081;SHT31;62438;52.228;6.864;2023-04-19T03:27:15;8.73;76.24
74081;SHT31;62438;52.228;6.864;2023-04-19T03:29:15;8.78;75.52
74081;SHT31;62438;52.228;6.864;2023-04-19T03:31:15;8.70;76.04
74081;SHT31;62438;52.228;6.864;2023-04-19T03:33:16;8.70;76.00
74081;SHT31;62438;52.228;6.864;2023-04-19T03:35:16;8.67;76.19
74081;SHT31;62438;52.228;6.864;2023-04-19T03:37:17;8.65;76.77
74081;SHT31;62438;52.228;6.864;2023-04-19T03:39:17;8.61;76.63
74081;SHT31;62438;52.228;6.864;2023-04-19T03:41:19;8.63;77.12
74081;SHT31;62438;52.228;6.864;2023-04-19T03:43:20;8.59;76.88
74081;SHT31;62438;52.228;6.864;2023-04-19T03:45:21;8.64;77.19
74081;SHT31;62438;52.228;6.864;2023-04-19T03:47:22;8.61;76.77
74081;SHT31;62438;52.228;6.864;2023-04-19T03:49:22;8.60;76.13
74081;SHT31;62438;52.228;6.864;2023-04-19T03:51:23;8.67;74.83
74081;SHT31;62438;52.228;6.864;2023-04-19T03:53:23;8.61;75.11
74081;SHT31;62438;52.228;6.864;2023-04-19T03:55:23;8.60;75.01
74081;SHT31;62438;52.228;6.864;2023-04-19T03:57:24;8.64;74.06
74081;SHT31;62438;52.228;6.864;2023-04-19T03:59:25;8.67;72.12
74081;SHT31;62438;52.228;6.864;2023-04-19T04:01:25;8.70;71.09
74081;SHT31;62438;52.228;6.864;2023-04-19T04:03:26;8.67;70.88
74081;SHT31;62438;52.228;6.864;2023-04-19T04:05:27;8.64;70.15
74081;SHT31;62438;52.228;6.864;2023-04-19T04:07:28;8.75;68.71
74081;SHT31;62438;52.228;6.864;2023-04-19T04:09:28;8.74;69.09
74081;SHT31;62438;52.228;6.864;2023-04-19T04:11:28;8.70;68.83
74081;SHT31;62438;52.228;6.864;2023-04-19T04:13:29;8.71;67.79
74081;SHT31;62438;52.228;6.864;2023-04-19T04:15:29;8.65;67.28
74081;SHT31;62438;52.228;6.864;2023-04-19T04:17:30;8.67;66.54
74081;SHT31;62438;52.228;6.864;2023-04-19T04:19:30;8.65;67.79
74081;SHT31;62438;52.228;6.864;2023-04-19T04:21:30;8.63;66.64
74081;SHT31;62438;52.228;6.864;2023-04-19T04:23:31;8.61;65.38
74081;SHT31;62438;52.228;6.864;2023-04-19T04:25:32;8.60;66.96
74081;SHT31;62438;52.228;6.864;2023-04-19T04:27:36;8.52;66.07
74081;SHT31;62438;52.228;6.864;2023-04-19T04:29:38;8.59;65.33
74081;SHT31;62438;52.228;6.864;2023-04-19T04:31:38;8.56;64.94
74081;SHT31;62438;52.228;6.864;2023-04-19T04:33:39;8.57;65.01
74081;SHT31;62438;52.228;6.864;2023-04-19T04:35:40;8.59;65.25
74081;SHT31;62438;52.228;6.864;2023-04-19T04:37:42;8.44;64.49
74081;SHT31;62438;52.228;6.864;2023-04-19T04:39:43;8.42;65.11
74081;SHT31;62438;52.228;6.864;2023-04-19T04:41:43;8.36;64.33
74081;SHT31;62438;52.228;6.864;2023-04-19T04:43:44;8.32;64.61
74081;SHT31;62438;52.228;6.864;2023-04-19T04:45:44;8.26;64.73
74081;SHT31;62438;52.228;6.864;2023-04-19T04:47:45;8.26;63.81
74081;SHT31;62438;52.228;6.864;2023-04-19T04:49:46;8.21;64.11
74081;SHT31;62438;52.228;6.864;2023-04-19T04:51:48;8.12;64.18
74081;SHT31;62438;52.228;6.864;2023-04-19T04:53:50;8.01;64.83
74081;SHT31;62438;52.228;6.864;2023-04-19T04:55:52;8.02;64.06
74081;SHT31;62438;52.228;6.864;2023-04-19T04:57:53;7.99;64.60
74081;SHT31;62438;52.228;6.864;2023-04-19T04:59:53;7.91;63.45
74081;SHT31;62438;52.228;6.864;2023-04-19T05:01:55;7.91;63.17
74081;SHT31;62438;52.228;6.864;2023-04-19T05:03:55;7.81;62.71
74081;SHT31;62438;52.228;6.864;2023-04-19T05:05:56;7.73;62.87
74081;SHT31;62438;52.228;6.864;2023-04-19T05:07:56;7.73;62.98
74081;SHT31;62438;52.228;6.864;2023-04-19T05:09:57;7.64;63.30
74081;SHT31;62438;52.228;6.864;2023-04-19T05:11:57;7.67;62.23
74081;SHT31;62438;52.228;6.864;2023-04-19T05:13:58;7.61;62.66
74081;SHT31;62438;52.228;6.864;2023-04-19T05:15:58;7.54;62.62
74081;SHT31;62438;52.228;6.864;2023-04-19T05:17:59;7.44;62.40
74081;SHT31;62438;52.228;6.864;2023-04-19T05:19:59;7.34;63.14
74081;SHT31;62438;52.228;6.864;2023-04-19T05:22:00;7.30;63.25
74081;SHT31;62438;52.228;6.864;2023-04-19T05:24:00;7.31;62.98
74081;SHT31;62438;52.228;6.864;2023-04-19T05:26:01;7.23;63.42
74081;SHT31;62438;52.228;6.864;2023-04-19T05:28:02;7.26;63.19
74081;SHT31;62438;52.228;6.864;2023-04-19T05:30:04;7.17;63.16
74081;SHT31;62438;52.228;6.864;2023-04-19T05:32:05;7.15;63.87
74081;SHT31;62438;52.228;6.864;2023-04-19T05:34:07;7.19;63.46
74081;SHT31;62438;52.228;6.864;2023-04-19T05:36:07;7.20;63.06
74081;SHT31;62438;52.228;6.864;2023-04-19T05:38:08;7.10;62.96
74081;SHT31;62438;52.228;6.864;2023-04-19T05:40:08;7.12;64.41
74081;SHT31;62438;52.228;6.864;2023-04-19T05:42:09;7.07;63.50
74081;SHT31;62438;52.228;6.864;2023-04-19T05:44:09;7.07;63.25
74081;SHT31;62438;52.228;6.864;2023-04-19T05:46:10;7.02;63.69
74081;SHT31;62438;52.228;6.864;2023-04-19T05:48:10;7.03;63.15
74081;SHT31;62438;52.228;6.864;2023-04-19T05:50:11;7.07;63.17
74081;SHT31;62438;52.228;6.864;2023-04-19T05:52:11;7.07;63.90
74081;SHT31;62438;52.228;6.864;2023-04-19T05:54:12;7.05;63.41
74081;SHT31;62438;52.228;6.864;2023-04-19T05:56:13;7.09;63.45
74081;SHT31;62438;52.228;6.864;2023-04-19T05:58:13;7.09;63.67
74081;SHT31;62438;52.228;6.864;2023-04-19T06:00:14;7.10;63.93
74081;SHT31;62438;52.228;6.864;2023-04-19T06:02:15;7.16;63.33
74081;SHT31;62438;52.228;6.864;2023-04-19T06:04:16;7.24;63.35
74081;SHT31;62438;52.228;6.864;2023-04-19T06:06:16;7.31;63.37
74081;SHT31;62438;52.228;6.864;2023-04-19T06:08:16;7.34;62.67
74081;SHT31;62438;52.228;6.864;2023-04-19T06:10:18;7.23;62.71
74081;SHT31;62438;52.228;6.864;2023-04-19T06:12:18;7.22;62.64
74081;SHT31;62438;52.228;6.864;2023-04-19T06:14:19;7.22;62.57
74081;SHT31;62438;52.228;6.864;2023-04-19T06:16:19;7.22;62.36
74081;SHT31;62438;52.228;6.864;2023-04-19T06:18:20;7.26;62.88
74081;SHT31;62438;52.228;6.864;2023-04-19T06:20:22;7.22;62.53
74081;SHT31;62438;52.228;6.864;2023-04-19T06:22:23;7.28;62.84
74081;SHT31;62438;52.228;6.864;2023-04-19T06:24:24;7.30;62.47
74081;SHT31;62438;52.228;6.864;2023-04-19T06:26:24;7.46;62.13
74081;SHT31;62438;52.228;6.864;2023-04-19T06:28:25;7.46;61.68
74081;SHT31;62438;52.228;6.864;2023-04-19T06:30:26;7.60;61.56
74081;SHT31;62438;52.228;6.864;2023-04-19T06:32:26;7.79;61.77
74081;SHT31;62438;52.228;6.864;2023-04-19T06:34:26;7.78;60.59
74081;SHT31;62438;52.228;6.864;2023-04-19T06:36:27;7.96;60.60
74081;SHT31;62438;52.228;6.864;2023-04-19T06:38:28;7.91;59.74
74081;SHT31;62438;52.228;6.864;2023-04-19T06:40:29;7.99;59.97
74081;SHT31;62438;52.228;6.864;2023-04-19T06:42:29;8.09;59.38
74081;SHT31;62438;52.228;6.864;2023-04-19T06:44:30;8.12;59.85
74081;SHT31;62438;52.228;6.864;2023-04-19T06:46:30;8.10;59.60
74081;SHT31;62438;52.228;6.864;2023-04-19T06:48:30;8.28;59.28
74081;SHT31;62438;52.228;6.864;2023-04-19T06:50:31;8.30;59.17
74081;SHT31;62438;52.228;6.864;2023-04-19T06:52:31;8.22;58.75
74081;SHT31;62438;52.228;6.864;2023-04-19T06:54:32;8.46;59.19
74081;SHT31;62438;52.228;6.864;2023-04-19T06:56:43;8.39;58.64
74081;SHT31;62438;52.228;6.864;2023-04-19T06:58:45;8.59;58.69
74081;SHT31;62438;52.228;6.864;2023-04-19T07:00:46;8.50;58.21
74081;SHT31;62438;52.228;6.864;2023-04-19T07:02:48;8.63;58.41
74081;SHT31;62438;52.228;6.864;2023-04-19T07:04:49;8.60;57.99
74081;SHT31;62438;52.228;6.864;2023-04-19T07:06:49;8.88;57.80
74081;SHT31;62438;52.228;6.864;2023-04-19T07:08:50;9.21;57.20
74081;SHT31;62438;52.228;6.864;2023-04-19T07:10:50;9.54;56.97
74081;SHT31;62438;52.228;6.864;2023-04-19T07:12:52;9.54;55.85
74081;SHT31;62438;52.228;6.864;2023-04-19T07:14:52;9.28;56.50
74081;SHT31;62438;52.228;6.864;2023-04-19T07:16:55;9.38;56.85
74081;SHT31;62438;52.228;6.864;2023-04-19T07:18:57;9.28;56.01
74081;SHT31;62438;52.228;6.864;2023-04-19T07:20:57;9.36;57.18
74081;SHT31;62438;52.228;6.864;2023-04-19T07:22:58;9.72;56.22
74081;SHT31;62438;52.228;6.864;2023-04-19T07:25:02;9.69;56.85
74081;SHT31;62438;52.228;6.864;2023-04-19T07:27:02;9.53;55.88
74081;SHT31;62438;52.228;6.864;2023-04-19T07:29:03;9.36;56.86
74081;SHT31;62438;52.228;6.864;2023-04-19T07:31:03;9.60;56.11
74081;SHT31;62438;52.228;6.864;2023-04-19T07:33:07;9.95;55.45
74081;SHT31;62438;52.228;6.864;2023-04-19T07:35:10;10.00;55.16
74081;SHT31;62438;52.228;6.864;2023-04-19T07:37:10;9.80;54.97
74081;SHT31;62438;52.228;6.864;2023-04-19T07:39:11;9.93;54.61
74081;SHT31;62438;52.228;6.864;2023-04-19T07:41:12;10.14;54.79
74081;SHT31;62438;52.228;6.864;2023-04-19T07:43:12;10.24;54.61
74081;SHT31;62438;52.228;6.864;2023-04-19T07:45:13;10.01;53.85
74081;SHT31;62438;52.228;6.864;2023-04-19T07:47:13;10.02;54.31
74081;SHT31;62438;52.228;6.864;2023-04-19T07:49:14;10.69;53.56
74081;SHT31;62438;52.228;6.864;2023-04-19T07:51:15;11.11;53.64
74081;SHT31;62438;52.228;6.864;2023-04-19T07:53:16;10.88;53.05
74081;SHT31;62438;52.228;6.864;2023-04-19T07:55:17;10.72;52.79
74081;SHT31;62438;52.228;6.864;2023-04-19T07:57:18;10.52;52.16
74081;SHT31;62438;52.228;6.864;2023-04-19T07:59:19;11.04;52.04
74081;SHT31;62438;52.228;6.864;2023-04-19T08:01:19;10.95;51.66
74081;SHT31;62438;52.228;6.864;2023-04-19T08:03:20;11.11;52.48
74081;SHT31;62438;52.228;6.864;2023-04-19T08:05:21;11.09;51.97
74081;SHT31;62438;52.228;6.864;2023-04-19T08:07:22;11.07;51.43
74081;SHT31;62438;52.228;6.864;2023-04-19T08:09:22;11.09;50.98
74081;SHT31;62438;52.228;6.864;2023-04-19T08:11:23;11.27;50.74
74081;SHT31;62438;52.228;6.864;2023-04-19T08:13:24;10.95;51.94
74081;SHT31;62438;52.228;6.864;2023-04-19T08:15:24;11.11;51.32
74081;SHT31;62438;52.228;6.864;2023-04-19T08:17:25;11.51;51.04
74081;SHT31;62438;52.228;6.864;2023-04-19T08:19:26;11.58;51.26
74081;SHT31;62438;52.228;6.864;2023-04-19T08:21:26;11.86;50.37
74081;SHT31;62438;52.228;6.864;2023-04-19T08:23:27;11.54;50.68
74081;SHT31;62438;52.228;6.864;2023-04-19T08:25:27;11.89;49.01
74081;SHT31;62438;52.228;6.864;2023-04-19T08:27:28;11.93;48.59
74081;SHT31;62438;52.228;6.864;2023-04-19T08:29:29;11.85;48.92
74081;SHT31;62438;52.228;6.864;2023-04-19T08:31:29;11.27;49.63
74081;SHT31;62438;52.228;6.864;2023-04-19T08:33:30;11.59;49.07
74081;SHT31;62438;52.228;6.864;2023-04-19T08:35:30;11.45;48.77
74081;SHT31;62438;52.228;6.864;2023-04-19T08:37:31;11.90;49.05
74081;SHT31;62438;52.228;6.864;2023-04-19T08:39:32;12.12;47.07
74081;SHT31;62438;52.228;6.864;2023-04-19T08:41:33;12.06;47.83
74081;SHT31;62438;52.228;6.864;2023-04-19T08:43:34;12.64;47.87
74081;SHT31;62438;52.228;6.864;2023-04-19T08:45:36;12.65;47.65
74081;SHT31;62438;52.228;6.864;2023-04-19T08:47:38;12.73;46.79
74081;SHT31;62438;52.228;6.864;2023-04-19T08:49:39;12.64;46.59
74081;SHT31;62438;52.228;6.864;2023-04-19T08:51:40;12.65;47.53
74081;SHT31;62438;52.228;6.864;2023-04-19T08:53:44;12.68;46.49
74081;SHT31;62438;52.228;6.864;2023-04-19T08:55:45;12.98;46.49
74081;SHT31;62438;52.228;6.864;2023-04-19T08:57:45;12.84;46.13
74081;SHT31;62438;52.228;6.864;2023-04-19T08:59:45;13.06;45.06
74081;SHT31;62438;52.228;6.864;2023-04-19T09:01:50;12.82;45.70
74081;SHT31;62438;52.228;6.864;2023-04-19T09:03:50;13.27;46.20
74081;SHT31;62438;52.228;6.864;2023-04-19T09:05:50;13.13;43.37
74081;SHT31;62438;52.228;6.864;2023-04-19T09:07:51;12.89;43.47
74081;SHT31;62438;52.228;6.864;2023-04-19T09:10:09;13.30;43.49
74081;SHT31;62438;52.228;6.864;2023-04-19T09:12:16;13.52;42.44
74081;SHT31;62438;52.228;6.864;2023-04-19T09:14:18;13.22;42.45
74081;SHT31;62438;52.228;6.864;2023-04-19T09:16:25;13.13;42.10
74081;SHT31;62438;52.228;6.864;2023-04-19T09:18:25;13.33;41.36
74081;SHT31;62438;52.228;6.864;2023-04-19T09:20:38;13.38;41.18
74081;SHT31;62438;52.228;6.864;2023-04-19T09:22:38;13.70;39.77
74081;SHT31;62438;52.228;6.864;2023-04-19T09:24:39;13.85;39.64
74081;SHT31;62438;52.228;6.864;2023-04-19T09:26:52;13.69;39.16
74081;SHT31;62438;52.228;6.864;2023-04-19T09:29:01;13.73;39.46
74081;SHT31;62438;52.228;6.864;2023-04-19T09:31:10;13.74;37.83
74081;SHT31;62438;52.228;6.864;2023-04-19T09:33:12;14.15;37.00
74081;SHT31;62438;52.228;6.864;2023-04-19T09:35:13;13.94;36.94
74081;SHT31;62438;52.228;6.864;2023-04-19T09:37:14;13.46;35.64
74081;SHT31;62438;52.228;6.864;2023-04-19T09:39:30;13.57;37.03
74081;SHT31;62438;52.228;6.864;2023-04-19T09:41:31;13.60;36.31
74081;SHT31;62438;52.228;6.864;2023-04-19T09:43:32;13.32;36.32
74081;SHT31;62438;52.228;6.864;2023-04-19T09:45:41;13.64;36.92
74081;SHT31;62438;52.228;6.864;2023-04-19T09:47:42;13.78;35.49
74081;SHT31;62438;52.228;6.864;2023-04-19T09:49:44;13.67;37.39
74081;SHT31;62438;52.228;6.864;2023-04-19T09:51:49;13.94;36.65
74081;SHT31;62438;52.228;6.864;2023-04-19T09:53:49;14.36;37.13
74081;SHT31;62438;52.228;6.864;2023-04-19T09:55:51;14.35;35.48
74081;SHT31;62438;52.228;6.864;2023-04-19T09:57:52;13.98;35.92
74081;SHT31;62438;52.228;6.864;2023-04-19T09:59:52;14.12;36.99
74081;SHT31;62438;52.228;6.864;2023-04-19T10:01:54;14.31;36.93
74081;SHT31;62438;52.228;6.864;2023-04-19T10:03:58;14.62;35.12
74081;SHT31;62438;52.228;6.864;2023-04-19T10:05:59;14.52;33.87
74081;SHT31;62438;52.228;6.864;2023-04-19T10:08:01;14.68;34.39
74081;SHT31;62438;52.228;6.864;2023-04-19T10:10:02;14.22;32.81
74081;SHT31;62438;52.228;6.864;2023-04-19T10:12:04;14.00;32.98
74081;SHT31;62438;52.228;6.864;2023-04-19T10:14:09;13.98;31.91
74081;SHT31;62438;52.228;6.864;2023-04-19T10:16:10;14.19;32.78
74081;SHT31;62438;52.228;6.864;2023-04-19T10:18:11;14.28;32.70
74081;SHT31;62438;52.228;6.864;2023-04-19T10:20:31;14.48;33.10
74081;SHT31;62438;52.228;6.864;2023-04-19T10:22:33;14.66;33.46
74081;SHT31;62438;52.228;6.864;2023-04-19T10:24:35;14.70;33.67
74081;SHT31;62438;52.228;6.864;2023-04-19T10:29:04;14.96;33.89
74081;SHT31;62438;52.228;6.864;2023-04-19T10:31:04;15.44;34.43
74081;SHT31;62438;52.228;6.864;2023-04-19T10:33:05;15.14;33.16
74081;SHT31;62438;52.228;6.864;2023-04-19T10:35:16;15.63;32.85
74081;SHT31;62438;52.228;6.864;2023-04-19T10:37:21;15.21;32.55
74081;SHT31;62438;52.228;6.864;2023-04-19T10:39:41;15.72;33.18
74081;SHT31;62438;52.228;6.864;2023-04-19T10:41:55;15.72;33.63
74081;SHT31;62438;52.228;6.864;2023-04-19T10:46:08;15.96;32.25
74081;SHT31;62438;52.228;6.864;2023-04-19T10:52:51;16.16;33.12
74081;SHT31;62438;52.228;6.864;2023-04-19T10:54:55;15.31;33.45
74081;SHT31;62438;52.228;6.864;2023-04-19T10:56:58;15.69;34.05
74081;SHT31;62438;52.228;6.864;2023-04-19T11:01:31;15.96;33.70
74081;SHT31;62438;52.228;6.864;2023-04-19T11:06:15;17.34;34.29
74081;SHT31;62438;52.228;6.864;2023-04-19T11:08:22;17.20;33.33
74081;SHT31;62438;52.228;6.864;2023-04-19T11:10:29;16.51;34.08
74081;SHT31;62438;52.228;6.864;2023-04-19T11:12:30;17.03;33.40
74081;SHT31;62438;52.228;6.864;2023-04-19T11:14:33;16.50;33.48
74081;SHT31;62438;52.228;6.864;2023-04-19T11:16:34;16.35;33.98
74081;SHT31;62438;52.228;6.864;2023-04-19T11:18:34;16.54;32.83
74081;SHT31;62438;52.228;6.864;2023-04-19T11:20:35;16.88;32.85
74081;SHT31;62438;52.228;6.864;2023-04-19T11:22:40;17.49;33.43
74081;SHT31;62438;52.228;6.864;2023-04-19T11:24:44;16.89;31.47
74081;SHT31;62438;52.228;6.864;2023-04-19T11:26:46;16.57;31.20
74081;SHT31;62438;52.228;6.864;2023-04-19T11:28:48;16.82;31.27
74081;SHT31;62438;52.228;6.864;2023-04-19T11:30:49;17.18;30.73
74081;SHT31;62438;52.228;6.864;2023-04-19T11:32:54;17.06;31.05
74081;SHT31;62438;52.228;6.864;2023-04-19T11:34:55;16.51;30.38
74081;SHT31;62438;52.228;6.864;2023-04-19T11:36:56;16.26;30.18
74081;SHT31;62438;52.228;6.864;2023-04-19T11:38:57;16.16;30.43
74081;SHT31;62438;52.228;6.864;2023-04-19T11:41:02;16.35;31.26
74081;SHT31;62438;52.228;6.864;2023-04-19T11:43:03;16.76;30.24
74081;SHT31;62438;52.228;6.864;2023-04-19T11:45:08;16.00;29.87
74081;SHT31;62438;52.228;6.864;2023-04-19T11:47:08;16.60;30.85
74081;SHT31;62438;52.228;6.864;2023-04-19T11:49:09;16.86;30.85
74081;SHT31;62438;52.228;6.864;2023-04-19T11:51:09;16.76;30.14
74081;SHT31;62438;52.228;6.864;2023-04-19T11:53:19;17.06;29.67
74081;SHT31;62438;52.228;6.864;2023-04-19T11:55:21;17.61;31.34
74081;SHT31;62438;52.228;6.864;2023-04-19T11:57:28;16.91;30.15
74081;SHT31;62438;52.228;6.864;2023-04-19T11:59:30;17.20;30.71
74081;SHT31;62438;52.228;6.864;2023-04-19T12:01:31;16.99;29.72
74081;SHT31;62438;52.228;6.864;2023-04-19T12:03:33;16.95;30.37
74081;SHT31;62438;52.228;6.864;2023-04-19T12:05:33;16.88;29.18
74081;SHT31;62438;52.228;6.864;2023-04-19T12:07:34;16.89;28.57
74081;SHT31;62438;52.228;6.864;2023-04-19T12:09:35;17.70;29.49
74081;SHT31;62438;52.228;6.864;2023-04-19T12:11:45;17.59;29.46
74081;SHT31;62438;52.228;6.864;2023-04-19T12:14:08;17.29;30.60
74081;SHT31;62438;52.228;6.864;2023-04-19T12:16:09;17.37;31.15
74081;SHT31;62438;52.228;6.864;2023-04-19T12:18:09;17.99;30.55
74081;SHT31;62438;52.228;6.864;2023-04-19T12:20:10;17.33;30.04
74081;SHT31;62438;52.228;6.864;2023-04-19T12:22:13;17.57;30.82
74081;SHT31;62438;52.228;6.864;2023-04-19T12:24:15;17.53;30.87
74081;SHT31;62438;52.228;6.864;2023-04-19T12:26:15;17.75;32.67
74081;SHT31;62438;52.228;6.864;2023-04-19T12:28:16;17.98;30.97
74081;SHT31;62438;52.228;6.864;2023-04-19T12:30:17;17.63;31.23
74081;SHT31;62438;52.228;6.864;2023-04-19T12:32:17;17.20;32.32
74081;SHT31;62438;52.228;6.864;2023-04-19T12:34:17;17.63;32.79
74081;SHT31;62438;52.228;6.864;2023-04-19T12:36:18;17.75;33.00
74081;SHT31;62438;52.228;6.864;2023-04-19T12:38:21;17.33;32.77
74081;SHT31;62438;52.228;6.864;2023-04-19T12:40:22;17.18;32.84
74081;SHT31;62438;52.228;6.864;2023-04-19T12:42:22;17.33;33.36
74081;SHT31;62438;52.228;6.864;2023-04-19T12:44:23;17.91;34.50
74081;SHT31;62438;52.228;6.864;2023-04-19T12:46:23;17.66;32.87
74081;SHT31;62438;52.228;6.864;2023-04-19T12:48:24;18.12;32.65
74081;SHT31;62438;52.228;6.864;2023-04-19T12:50:25;17.80;32.05
74081;SHT31;62438;52.228;6.864;2023-04-19T12:52:25;17.98;33.83
74081;SHT31;62438;52.228;6.864;2023-04-19T12:54:26;17.80;31.76
74081;SHT31;62438;52.228;6.864;2023-04-19T12:56:26;17.36;32.68
74081;SHT31;62438;52.228;6.864;2023-04-19T12:58:27;17.47;33.52
74081;SHT31;62438;52.228;6.864;2023-04-19T13:00:27;17.23;33.12
74081;SHT31;62438;52.228;6.864;2023-04-19T13:02:29;17.18;34.43
74081;SHT31;62438;52.228;6.864;2023-04-19T13:04:29;17.15;33.59
74081;SHT31;62438;52.228;6.864;2023-04-19T13:06:30;17.20;33.19
74081;SHT31;62438;52.228;6.864;2023-04-19T13:08:30;17.22;33.63
74081;SHT31;62438;52.228;6.864;2023-04-19T13:10:31;17.53;34.61